createdAt,value
2018-05-16T00:00:55.122Z,423
2018-05-16T00:02:02.322Z,424
2018-05-16T00:03:09.528Z,422
2018-05-16T00:04:16.733Z,421
2018-05-16T00:05:23.931Z,420
2018-05-16T00:06:31.150Z,419
2018-05-16T00:07:38.353Z,421
2018-05-16T00:08:45.284Z,420
2018-05-16T00:09:52.216Z,421
2018-05-16T00:10:59.415Z,421
2018-05-16T00:12:06.350Z,419
2018-05-16T00:13:13.551Z,420
2018-05-16T00:14:20.756Z,419
2018-05-16T00:15:27.961Z,420
2018-05-16T00:16:35.174Z,417
2018-05-16T00:17:42.454Z,417
2018-05-16T00:18:49.657Z,418
2018-05-16T00:19:56.862Z,417
2018-05-16T00:21:04.067Z,418
2018-05-16T00:22:11.264Z,417
2018-05-16T00:23:18.467Z,416
2018-05-16T00:24:25.669Z,415
2018-05-16T00:25:32.875Z,416
2018-05-16T00:26:40.075Z,416
2018-05-16T00:27:47.286Z,416
2018-05-16T00:28:54.483Z,416
2018-05-16T00:30:01.425Z,415
2018-05-16T00:31:08.633Z,414
2018-05-16T00:32:15.839Z,415
2018-05-16T00:33:23.067Z,412
2018-05-16T00:34:30.271Z,415
2018-05-16T00:35:37.475Z,415
2018-05-16T00:36:44.682Z,414
2018-05-16T00:37:51.891Z,415
2018-05-16T00:38:59.093Z,414
2018-05-16T00:40:06.295Z,414
2018-05-16T00:41:13.216Z,413
2018-05-16T00:42:20.427Z,411
2018-05-16T00:43:27.630Z,411
2018-05-16T00:44:34.835Z,410
2018-05-16T00:45:42.044Z,410
2018-05-16T00:46:49.247Z,411
2018-05-16T00:47:56.176Z,410
2018-05-16T00:49:03.502Z,411
2018-05-16T00:50:10.431Z,411
2018-05-16T00:51:17.637Z,412
2018-05-16T00:52:24.847Z,408
2018-05-16T00:53:32.053Z,407
2018-05-16T00:54:39.256Z,407
2018-05-16T00:55:46.453Z,407
2018-05-16T00:56:53.654Z,406
2018-05-16T00:58:00.853Z,407
2018-05-16T00:59:08.058Z,409
2018-05-16T01:00:15.278Z,408
2018-05-16T01:01:22.481Z,408
2018-05-16T01:02:29.709Z,406
2018-05-16T01:03:36.916Z,407
2018-05-16T01:04:44.122Z,406
2018-05-16T01:05:51.052Z,405
2018-05-16T01:06:58.258Z,404
2018-05-16T01:08:05.466Z,403
2018-05-16T01:09:12.671Z,402
2018-05-16T01:10:19.878Z,404
2018-05-16T01:11:26.807Z,405
2018-05-16T01:12:34.010Z,404
2018-05-16T01:13:41.214Z,403
2018-05-16T01:14:48.413Z,403
2018-05-16T01:15:55.629Z,404
2018-05-16T01:17:02.829Z,404
2018-05-16T01:18:10.036Z,402
2018-05-16T01:19:17.243Z,403
2018-05-16T01:20:24.447Z,403
2018-05-16T01:21:31.653Z,401
2018-05-16T01:22:38.860Z,403
2018-05-16T01:23:46.079Z,404
2018-05-16T01:24:53.288Z,404
2018-05-16T01:26:00.492Z,402
2018-05-16T01:27:07.698Z,404
2018-05-16T01:28:14.633Z,402
2018-05-16T01:29:21.840Z,402
2018-05-16T01:30:29.048Z,402
2018-05-16T01:31:36.261Z,402
2018-05-16T01:32:43.462Z,402
2018-05-16T01:33:50.663Z,402
2018-05-16T01:34:57.872Z,401
2018-05-16T01:36:05.229Z,402
2018-05-16T01:37:12.437Z,404
2018-05-16T01:38:19.640Z,404
2018-05-16T01:39:26.846Z,404
2018-05-16T01:40:34.044Z,403
2018-05-16T01:41:41.242Z,403
2018-05-16T01:42:48.172Z,404
2018-05-16T01:43:55.111Z,404
2018-05-16T01:45:02.316Z,403
2018-05-16T01:46:09.527Z,403
2018-05-16T01:47:16.730Z,405
2018-05-16T01:48:23.954Z,406
2018-05-16T01:49:31.140Z,406
2018-05-16T01:50:38.342Z,406
2018-05-16T01:51:45.277Z,406
2018-05-16T01:52:52.483Z,405
2018-05-16T01:53:59.689Z,406
2018-05-16T01:55:06.894Z,409
2018-05-16T01:56:14.101Z,407
2018-05-16T01:57:21.307Z,408
2018-05-16T01:58:28.511Z,408
2018-05-16T01:59:35.713Z,410
2018-05-16T02:00:42.916Z,410
2018-05-16T02:01:50.119Z,408
2018-05-16T02:02:57.327Z,409
2018-05-16T02:04:04.526Z,408
2018-05-16T02:05:11.725Z,408
2018-05-16T02:06:18.926Z,409
2018-05-16T02:07:26.128Z,408
2018-05-16T02:08:33.330Z,410
2018-05-16T02:09:40.533Z,409
2018-05-16T02:10:47.758Z,409
2018-05-16T02:11:54.961Z,409
2018-05-16T02:13:01.889Z,410
2018-05-16T02:14:09.093Z,409
2018-05-16T02:15:16.295Z,407
2018-05-16T02:16:23.503Z,407
2018-05-16T02:17:30.428Z,406
2018-05-16T02:18:37.646Z,408
2018-05-16T02:19:44.846Z,407
2018-05-16T02:20:51.778Z,409
2018-05-16T02:21:58.981Z,408
2018-05-16T02:23:06.183Z,407
2018-05-16T02:24:13.388Z,408
2018-05-16T02:25:20.595Z,409
2018-05-16T02:26:27.520Z,409
2018-05-16T02:27:34.663Z,406
2018-05-16T02:28:41.867Z,405
2018-05-16T02:29:48.796Z,405
2018-05-16T02:30:55.999Z,404
2018-05-16T02:32:03.206Z,403
2018-05-16T02:33:10.128Z,403
2018-05-16T02:34:17.346Z,402
2018-05-16T02:35:24.549Z,403
2018-05-16T02:36:31.480Z,403
2018-05-16T02:37:38.687Z,405
2018-05-16T02:38:45.890Z,407
2018-05-16T02:39:53.139Z,408
2018-05-16T02:41:00.337Z,410
2018-05-16T02:42:07.592Z,410
2018-05-16T02:43:14.790Z,411
2018-05-16T02:44:21.990Z,413
2018-05-16T02:45:29.196Z,414
2018-05-16T02:46:36.407Z,414
2018-05-16T02:47:43.607Z,414
2018-05-16T02:48:50.817Z,415
2018-05-16T02:49:58.022Z,415
2018-05-16T02:51:05.236Z,415
2018-05-16T02:52:12.165Z,414
2018-05-16T02:53:19.369Z,414
2018-05-16T02:54:26.909Z,415
2018-05-16T02:55:33.984Z,414
2018-05-16T02:56:41.193Z,415
2018-05-16T02:57:48.403Z,414
2018-05-16T02:58:55.342Z,413
2018-05-16T03:00:02.544Z,414
2018-05-16T03:01:09.748Z,415
2018-05-16T03:02:16.955Z,415
2018-05-16T03:03:24.156Z,416
2018-05-16T03:04:31.358Z,415
2018-05-16T03:05:38.560Z,416
2018-05-16T03:06:45.767Z,415
2018-05-16T03:07:52.968Z,414
2018-05-16T03:09:00.165Z,414
2018-05-16T03:10:07.378Z,414
2018-05-16T03:11:14.671Z,415
2018-05-16T03:12:21.862Z,416
2018-05-16T03:13:29.068Z,416
2018-05-16T03:14:36.271Z,417
2018-05-16T03:15:43.470Z,417
2018-05-16T03:16:50.674Z,417
2018-05-16T03:17:57.879Z,418
2018-05-16T03:19:05.083Z,418
2018-05-16T03:20:12.009Z,417
2018-05-16T03:21:19.215Z,418
2018-05-16T03:22:26.419Z,417
2018-05-16T03:23:33.636Z,418
2018-05-16T03:24:40.833Z,417
2018-05-16T03:25:48.043Z,418
2018-05-16T03:26:55.241Z,417
2018-05-16T03:28:02.453Z,418
2018-05-16T03:29:09.646Z,417
2018-05-16T03:30:16.581Z,418
2018-05-16T03:31:23.775Z,417
2018-05-16T03:32:30.978Z,418
2018-05-16T03:33:38.178Z,418
2018-05-16T03:34:45.108Z,417
2018-05-16T03:35:52.311Z,417
2018-05-16T03:36:59.517Z,417
2018-05-16T03:38:06.723Z,417
2018-05-16T03:39:13.935Z,417
2018-05-16T03:40:21.145Z,418
2018-05-16T03:41:28.358Z,418
2018-05-16T03:42:35.565Z,418
2018-05-16T03:43:42.774Z,418
2018-05-16T03:44:49.978Z,417
2018-05-16T03:45:57.189Z,418
2018-05-16T03:47:04.395Z,418
2018-05-16T03:48:11.600Z,418
2018-05-16T03:49:18.807Z,418
2018-05-16T03:50:26.006Z,417
2018-05-16T03:51:33.205Z,418
2018-05-16T03:52:40.409Z,417
2018-05-16T03:53:47.605Z,417
2018-05-16T03:54:54.811Z,417
2018-05-16T03:56:01.764Z,418
2018-05-16T03:57:08.968Z,417
2018-05-16T03:58:16.394Z,417
2018-05-16T03:59:23.590Z,417
2018-05-16T04:00:30.792Z,417
2018-05-16T04:01:37.998Z,416
2018-05-16T04:02:45.203Z,416
2018-05-16T04:03:52.406Z,417
2018-05-16T04:04:59.848Z,416
2018-05-16T04:06:07.054Z,416
2018-05-16T04:07:14.249Z,416
2018-05-16T04:08:21.455Z,416
2018-05-16T04:09:28.652Z,416
2018-05-16T04:10:35.860Z,416
2018-05-16T04:11:43.061Z,417
2018-05-16T04:12:50.268Z,417
2018-05-16T04:13:57.479Z,415
2018-05-16T04:15:04.135Z,417
2018-05-16T04:16:11.362Z,417
2018-05-16T04:17:18.566Z,418
2018-05-16T04:18:25.494Z,417
2018-05-16T04:19:32.698Z,418
2018-05-16T04:20:39.903Z,418
2018-05-16T04:21:47.105Z,419
2018-05-16T04:22:54.310Z,419
2018-05-16T04:24:01.305Z,420
2018-05-16T04:25:08.519Z,420
2018-05-16T04:26:15.723Z,421
2018-05-16T04:27:22.928Z,421
2018-05-16T04:28:30.129Z,421
2018-05-16T04:29:37.335Z,422
2018-05-16T04:30:44.537Z,422
2018-05-16T04:31:51.468Z,423
2018-05-16T04:32:58.672Z,423
2018-05-16T04:34:05.330Z,423
2018-05-16T04:35:12.528Z,423
2018-05-16T04:36:19.732Z,423
2018-05-16T04:37:26.930Z,423
2018-05-16T04:38:33.864Z,424
2018-05-16T04:39:41.076Z,425
2018-05-16T04:40:48.283Z,425
2018-05-16T04:41:55.484Z,423
2018-05-16T04:43:02.753Z,424
2018-05-16T04:44:09.956Z,424
2018-05-16T04:45:17.158Z,423
2018-05-16T04:46:24.364Z,425
2018-05-16T04:47:31.575Z,426
2018-05-16T04:48:38.536Z,426
2018-05-16T04:49:45.742Z,426
2018-05-16T04:50:52.948Z,425
2018-05-16T04:52:00.172Z,426
2018-05-16T04:53:07.414Z,424
2018-05-16T04:54:14.619Z,426
2018-05-16T04:55:21.821Z,427
2018-05-16T04:56:29.026Z,427
2018-05-16T04:57:36.229Z,426
2018-05-16T04:58:43.438Z,426
2018-05-16T04:59:50.647Z,424
2018-05-16T05:00:58.012Z,422
2018-05-16T05:02:04.939Z,421
2018-05-16T05:03:12.145Z,419
2018-05-16T05:04:19.346Z,420
2018-05-16T05:05:26.549Z,418
2018-05-16T05:06:33.753Z,413
2018-05-16T05:07:40.960Z,411
2018-05-16T05:08:48.350Z,407
2018-05-16T05:09:55.561Z,407
2018-05-16T05:11:02.764Z,405
2018-05-16T05:12:09.973Z,401
2018-05-16T05:13:17.176Z,398
2018-05-16T05:14:24.383Z,400
2018-05-16T05:15:31.597Z,399
2018-05-16T05:16:38.531Z,398
2018-05-16T05:17:45.749Z,396
2018-05-16T05:18:53.158Z,394
2018-05-16T05:20:00.632Z,392
2018-05-16T05:21:07.834Z,389
2018-05-16T05:22:15.070Z,389
2018-05-16T05:23:22.289Z,388
2018-05-16T05:24:29.565Z,388
2018-05-16T05:25:36.770Z,388
2018-05-16T05:26:43.424Z,395
2018-05-16T05:27:50.632Z,390
2018-05-16T05:28:57.836Z,390
2018-05-16T05:30:05.048Z,389
2018-05-16T05:31:12.253Z,389
2018-05-16T05:32:19.460Z,389
2018-05-16T05:33:26.663Z,390
2018-05-16T05:34:33.872Z,391
2018-05-16T05:35:41.079Z,390
2018-05-16T05:36:48.426Z,391
2018-05-16T05:37:55.670Z,391
2018-05-16T05:39:02.873Z,391
2018-05-16T05:40:10.074Z,391
2018-05-16T05:41:17.277Z,392
2018-05-16T05:42:24.481Z,392
2018-05-16T05:43:31.419Z,392
2018-05-16T05:44:38.631Z,393
2018-05-16T05:45:45.841Z,393
2018-05-16T05:46:52.830Z,392
2018-05-16T05:48:00.035Z,393
2018-05-16T05:49:07.390Z,393
2018-05-16T05:50:14.673Z,394
2018-05-16T05:51:21.883Z,394
2018-05-16T05:52:29.094Z,394
2018-05-16T05:53:36.299Z,393
2018-05-16T05:54:43.580Z,394
2018-05-16T05:55:50.785Z,394
2018-05-16T05:56:57.992Z,395
2018-05-16T05:58:05.199Z,395
2018-05-16T05:59:12.409Z,394
2018-05-16T06:00:19.616Z,394
2018-05-16T06:01:26.827Z,394
2018-05-16T06:02:33.757Z,395
2018-05-16T06:03:40.970Z,395
2018-05-16T06:04:48.168Z,395
2018-05-16T06:05:55.372Z,395
2018-05-16T06:07:02.585Z,396
2018-05-16T06:08:09.786Z,395
2018-05-16T06:09:16.997Z,396
2018-05-16T06:10:24.280Z,396
2018-05-16T06:11:31.480Z,395
2018-05-16T06:12:38.834Z,394
2018-05-16T06:13:45.678Z,395
2018-05-16T06:14:52.907Z,394
2018-05-16T06:15:59.845Z,394
2018-05-16T06:17:07.043Z,394
2018-05-16T06:18:13.982Z,393
2018-05-16T06:19:20.909Z,393
2018-05-16T06:20:28.117Z,392
2018-05-16T06:21:35.327Z,391
2018-05-16T06:22:42.533Z,392
2018-05-16T06:23:49.739Z,392
2018-05-16T06:24:56.950Z,392
2018-05-16T06:26:03.876Z,392
2018-05-16T06:27:11.641Z,391
2018-05-16T06:28:19.115Z,390
2018-05-16T06:29:26.313Z,391
2018-05-16T06:30:33.522Z,391
2018-05-16T06:31:40.727Z,390
2018-05-16T06:32:48.281Z,390
2018-05-16T06:33:55.571Z,389
2018-05-16T06:35:02.782Z,388
2018-05-16T06:36:09.994Z,387
2018-05-16T06:37:17.199Z,386
2018-05-16T06:38:24.407Z,387
2018-05-16T06:39:31.611Z,389
2018-05-16T06:40:38.813Z,389
2018-05-16T06:41:46.023Z,389
2018-05-16T06:42:53.232Z,390
2018-05-16T06:44:00.440Z,391
2018-05-16T06:45:07.644Z,392
2018-05-16T06:46:14.579Z,392
2018-05-16T06:47:21.788Z,393
2018-05-16T06:48:28.996Z,395
2018-05-16T06:49:36.205Z,395
2018-05-16T06:50:43.416Z,395
2018-05-16T06:51:50.621Z,395
2018-05-16T06:52:57.866Z,395
2018-05-16T06:54:04.805Z,394
2018-05-16T06:55:12.009Z,395
2018-05-16T06:56:19.250Z,395
2018-05-16T06:57:26.201Z,394
2018-05-16T06:58:33.411Z,395
2018-05-16T06:59:40.623Z,396
2018-05-16T07:00:47.554Z,396
2018-05-16T07:01:54.759Z,396
2018-05-16T07:03:01.962Z,395
2018-05-16T07:04:09.445Z,396
2018-05-16T07:05:16.836Z,396
2018-05-16T07:06:24.044Z,396
2018-05-16T07:07:31.249Z,395
2018-05-16T07:08:38.556Z,394
2018-05-16T07:09:45.754Z,395
2018-05-16T07:10:52.962Z,395
2018-05-16T07:11:59.902Z,395
2018-05-16T07:13:06.841Z,394
2018-05-16T07:14:14.046Z,395
2018-05-16T07:15:21.248Z,395
2018-05-16T07:16:28.458Z,396
2018-05-16T07:17:35.665Z,395
2018-05-16T07:18:42.875Z,396
2018-05-16T07:19:50.098Z,397
2018-05-16T07:20:57.300Z,396
2018-05-16T07:22:04.506Z,397
2018-05-16T07:23:11.710Z,396
2018-05-16T07:24:18.916Z,396
2018-05-16T07:25:26.124Z,397
2018-05-16T07:26:33.337Z,396
2018-05-16T07:27:40.536Z,395
2018-05-16T07:28:47.744Z,397
2018-05-16T07:29:54.955Z,397
2018-05-16T07:31:02.162Z,396
2018-05-16T07:32:09.369Z,396
2018-05-16T07:33:16.578Z,395
2018-05-16T07:34:23.784Z,395
2018-05-16T07:35:30.721Z,395
2018-05-16T07:36:37.929Z,395
2018-05-16T07:37:45.147Z,395
2018-05-16T07:38:52.372Z,395
2018-05-16T07:39:59.580Z,393
2018-05-16T07:41:06.995Z,393
2018-05-16T07:42:14.276Z,393
2018-05-16T07:43:21.489Z,393
2018-05-16T07:44:28.693Z,394
2018-05-16T07:45:35.902Z,393
2018-05-16T07:46:43.105Z,393
2018-05-16T07:47:50.312Z,394
2018-05-16T07:48:57.244Z,395
2018-05-16T07:50:04.453Z,396
2018-05-16T07:51:11.871Z,397
2018-05-16T07:52:19.079Z,398
2018-05-16T07:53:26.286Z,397
2018-05-16T07:54:33.497Z,395
2018-05-16T07:55:40.709Z,392
2018-05-16T07:56:47.643Z,390
2018-05-16T07:57:54.881Z,388
2018-05-16T07:59:02.091Z,389
2018-05-16T08:00:09.304Z,390
2018-05-16T08:01:16.510Z,391
2018-05-16T08:02:23.162Z,390
2018-05-16T08:03:30.373Z,391
2018-05-16T08:04:37.315Z,390
2018-05-16T08:05:44.512Z,390
2018-05-16T08:06:51.727Z,391
2018-05-16T08:07:58.944Z,390
2018-05-16T08:09:05.879Z,391
2018-05-16T08:10:13.090Z,392
2018-05-16T08:11:20.300Z,392
2018-05-16T08:12:27.518Z,391
2018-05-16T08:13:34.460Z,390
2018-05-16T08:14:41.674Z,390
2018-05-16T08:15:48.885Z,391
2018-05-16T08:16:56.093Z,392
2018-05-16T08:18:03.303Z,392
2018-05-16T08:19:10.515Z,392
2018-05-16T08:20:17.744Z,391
2018-05-16T08:21:24.948Z,392
2018-05-16T08:22:32.166Z,394
2018-05-16T08:23:39.375Z,397
2018-05-16T08:24:46.591Z,398
2018-05-16T08:25:53.797Z,396
2018-05-16T08:27:00.735Z,394
2018-05-16T08:28:07.949Z,390
2018-05-16T08:29:15.158Z,388
2018-05-16T08:30:22.367Z,386
2018-05-16T08:31:29.578Z,385
2018-05-16T08:32:36.794Z,382
2018-05-16T08:33:43.739Z,381
2018-05-16T08:34:50.952Z,383
2018-05-16T08:35:58.162Z,384
2018-05-16T08:37:05.373Z,380
2018-05-16T08:38:12.588Z,379
2018-05-16T08:39:19.790Z,381
2018-05-16T08:40:26.751Z,382
2018-05-16T08:41:33.961Z,380
2018-05-16T08:42:41.169Z,380
2018-05-16T08:43:48.380Z,385
2018-05-16T08:44:55.587Z,386
2018-05-16T08:46:02.798Z,389
2018-05-16T08:47:09.999Z,389
2018-05-16T08:48:16.930Z,390
2018-05-16T08:49:24.142Z,388
2018-05-16T08:50:31.359Z,387
2018-05-16T08:51:38.597Z,387
2018-05-16T08:52:45.807Z,387
2018-05-16T08:53:52.473Z,391
2018-05-16T08:54:59.680Z,390
2018-05-16T08:56:06.898Z,392
2018-05-16T08:57:13.839Z,390
2018-05-16T08:58:20.783Z,391
2018-05-16T08:59:27.996Z,391
2018-05-16T09:00:35.210Z,392
2018-05-16T09:01:42.426Z,394
2018-05-16T09:02:49.358Z,394
2018-05-16T09:03:56.570Z,391
2018-05-16T09:05:03.788Z,389
2018-05-16T09:06:10.994Z,386
2018-05-16T09:07:18.205Z,386
2018-05-16T09:08:25.419Z,387
2018-05-16T09:09:32.630Z,387
2018-05-16T09:10:39.843Z,386
2018-05-16T09:11:47.063Z,386
2018-05-16T09:12:54.274Z,387
2018-05-16T09:14:01.481Z,385
2018-05-16T09:15:08.693Z,382
2018-05-16T09:16:15.909Z,379
2018-05-16T09:17:23.494Z,375
2018-05-16T09:18:30.946Z,375
2018-05-16T09:19:38.158Z,377
2018-05-16T09:20:45.365Z,381
2018-05-16T09:21:52.583Z,384
2018-05-16T09:22:59.797Z,384
2018-05-16T09:24:07.009Z,386
2018-05-16T09:25:14.501Z,383
2018-05-16T09:26:21.804Z,382
2018-05-16T09:27:29.016Z,381
2018-05-16T09:28:36.225Z,383
2018-05-16T09:29:43.442Z,386
2018-05-16T09:30:50.650Z,387
2018-05-16T09:31:57.863Z,388
2018-05-16T09:33:05.074Z,388
2018-05-16T09:34:12.018Z,386
2018-05-16T09:35:19.228Z,384
2018-05-16T09:36:26.461Z,380
2018-05-16T09:37:33.671Z,380
2018-05-16T09:38:40.892Z,385
2018-05-16T09:39:48.111Z,389
2018-05-16T09:40:55.059Z,391
2018-05-16T09:42:02.271Z,392
2018-05-16T09:43:09.478Z,391
2018-05-16T09:44:16.693Z,388
2018-05-16T09:45:23.909Z,387
2018-05-16T09:46:31.119Z,389
2018-05-16T09:47:38.331Z,392
2018-05-16T09:48:45.276Z,393
2018-05-16T09:49:52.483Z,393
2018-05-16T09:50:59.692Z,393
2018-05-16T09:52:06.632Z,389
2018-05-16T09:53:13.846Z,387
2018-05-16T09:54:21.057Z,383
2018-05-16T09:55:28.275Z,379
2018-05-16T09:56:35.558Z,380
2018-05-16T09:57:43.019Z,378
2018-05-16T09:58:50.217Z,377
2018-05-16T09:59:57.423Z,376
2018-05-16T10:01:04.366Z,374
2018-05-16T10:02:11.578Z,371
2018-05-16T10:03:18.786Z,374
2018-05-16T10:04:26.006Z,376
2018-05-16T10:05:33.250Z,373
2018-05-16T10:06:40.451Z,371
2018-05-16T10:07:47.657Z,370
2018-05-16T10:08:54.870Z,366
2018-05-16T10:10:02.085Z,373
2018-05-16T10:11:09.291Z,370
2018-05-16T10:12:16.502Z,368
2018-05-16T10:13:23.439Z,368
2018-05-16T10:14:30.649Z,375
2018-05-16T10:15:37.862Z,378
2018-05-16T10:16:45.296Z,381
2018-05-16T10:17:52.227Z,379
2018-05-16T10:18:59.435Z,382
2018-05-16T10:20:06.740Z,384
2018-05-16T10:21:14.260Z,384
2018-05-16T10:22:21.201Z,386
2018-05-16T10:23:28.414Z,391
2018-05-16T10:24:35.629Z,391
2018-05-16T10:25:42.841Z,388
2018-05-16T10:26:50.057Z,388
2018-05-16T10:27:57.013Z,388
2018-05-16T10:29:04.224Z,388
2018-05-16T10:30:11.429Z,389
2018-05-16T10:31:18.787Z,390
2018-05-16T10:32:25.728Z,390
2018-05-16T10:33:32.938Z,390
2018-05-16T10:34:39.992Z,391
2018-05-16T10:35:47.194Z,392
2018-05-16T10:36:54.404Z,394
2018-05-16T10:38:01.619Z,393
2018-05-16T10:39:08.829Z,393
2018-05-16T10:40:16.042Z,392
2018-05-16T10:41:23.336Z,391
2018-05-16T10:42:30.560Z,391
2018-05-16T10:43:37.774Z,390
2018-05-16T10:44:44.990Z,388
2018-05-16T10:45:52.200Z,386
2018-05-16T10:46:59.421Z,385
2018-05-16T10:48:06.630Z,383
2018-05-16T10:49:13.843Z,380
2018-05-16T10:50:21.055Z,382
2018-05-16T10:51:28.269Z,383
2018-05-16T10:52:35.484Z,384
2018-05-16T10:53:42.684Z,385
2018-05-16T10:54:49.900Z,385
2018-05-16T10:55:56.835Z,392
2018-05-16T10:57:04.308Z,392
2018-05-16T10:58:11.525Z,393
2018-05-16T10:59:18.737Z,393
2018-05-16T11:00:25.950Z,396
2018-05-16T11:01:32.620Z,396
2018-05-16T11:02:39.530Z,395
2018-05-16T11:03:46.744Z,395
2018-05-16T11:04:54.188Z,395
2018-05-16T11:06:01.392Z,394
2018-05-16T11:07:08.599Z,395
2018-05-16T11:08:15.537Z,395
2018-05-16T11:09:22.750Z,395
2018-05-16T11:10:29.847Z,395
2018-05-16T11:11:37.116Z,394
2018-05-16T11:12:44.325Z,393
2018-05-16T11:13:51.534Z,393
2018-05-16T11:14:58.970Z,394
2018-05-16T11:16:06.168Z,392
2018-05-16T11:17:13.383Z,391
2018-05-16T11:18:20.593Z,390
2018-05-16T11:19:27.804Z,391
2018-05-16T11:20:35.019Z,390
2018-05-16T11:21:42.269Z,390
2018-05-16T11:22:49.481Z,388
2018-05-16T11:23:56.694Z,388
2018-05-16T11:25:03.907Z,387
2018-05-16T11:26:10.840Z,388
2018-05-16T11:27:18.123Z,390
2018-05-16T11:28:25.327Z,390
2018-05-16T11:29:32.556Z,389
2018-05-16T11:30:39.769Z,389
2018-05-16T11:31:46.703Z,387
2018-05-16T11:32:53.913Z,384
2018-05-16T11:34:01.121Z,386
2018-05-16T11:35:08.407Z,387
2018-05-16T11:36:15.620Z,387
2018-05-16T11:37:22.854Z,387
2018-05-16T11:38:30.049Z,387
2018-05-16T11:39:37.259Z,387
2018-05-16T11:40:44.477Z,387
2018-05-16T11:41:51.697Z,386
2018-05-16T11:42:58.901Z,386
2018-05-16T11:44:06.112Z,389
2018-05-16T11:45:13.066Z,388
2018-05-16T11:46:20.025Z,390
2018-05-16T11:47:26.952Z,390
2018-05-16T11:48:34.160Z,389
2018-05-16T11:49:41.372Z,387
2018-05-16T11:50:48.586Z,389
2018-05-16T11:51:55.795Z,390
2018-05-16T11:53:03.005Z,389
2018-05-16T11:54:10.217Z,391
2018-05-16T11:55:17.428Z,391
2018-05-16T11:56:24.637Z,393
2018-05-16T11:57:31.846Z,393
2018-05-16T11:58:39.068Z,391
2018-05-16T11:59:46.278Z,394
2018-05-16T12:00:53.492Z,394
2018-05-16T12:02:00.699Z,394
2018-05-16T12:03:07.906Z,393
2018-05-16T12:04:15.120Z,394
2018-05-16T12:05:22.323Z,395
2018-05-16T12:06:29.533Z,396
2018-05-16T12:07:36.740Z,395
2018-05-16T12:08:43.946Z,394
2018-05-16T12:09:51.157Z,395
2018-05-16T12:10:58.443Z,394
2018-05-16T12:12:05.649Z,393
2018-05-16T12:13:12.885Z,392
2018-05-16T12:14:20.094Z,393
2018-05-16T12:15:27.042Z,393
2018-05-16T12:16:33.979Z,392
2018-05-16T12:17:41.185Z,391
2018-05-16T12:18:48.121Z,391
2018-05-16T12:19:55.381Z,390
2018-05-16T12:21:02.597Z,389
2018-05-16T12:22:09.809Z,387
2018-05-16T12:23:17.021Z,386
2018-05-16T12:24:24.236Z,385
2018-05-16T12:25:31.449Z,383
2018-05-16T12:26:38.397Z,383
2018-05-16T12:27:45.621Z,381
2018-05-16T12:28:52.990Z,380
2018-05-16T12:29:59.758Z,379
2018-05-16T12:31:06.962Z,379
2018-05-16T12:32:13.902Z,383
2018-05-16T12:33:21.110Z,382
2018-05-16T12:34:28.054Z,381
2018-05-16T12:35:34.986Z,382
2018-05-16T12:36:42.519Z,382
2018-05-16T12:37:49.816Z,382
2018-05-16T12:38:57.040Z,383
2018-05-16T12:40:04.242Z,384
2018-05-16T12:41:11.453Z,382
2018-05-16T12:42:18.684Z,381
2018-05-16T12:43:25.892Z,384
2018-05-16T12:44:33.107Z,385
2018-05-16T12:45:41.564Z,386
2018-05-16T12:46:48.505Z,387
2018-05-16T12:47:55.442Z,386
2018-05-16T12:49:02.652Z,386
2018-05-16T12:50:09.865Z,386
2018-05-16T12:51:17.080Z,385
2018-05-16T12:52:24.295Z,383
2018-05-16T12:53:31.508Z,384
2018-05-16T12:54:38.721Z,384
2018-05-16T12:55:46.177Z,383
2018-05-16T12:56:53.498Z,382
2018-05-16T12:58:00.712Z,381
2018-05-16T12:59:07.926Z,382
2018-05-16T13:00:15.139Z,381
2018-05-16T13:01:22.494Z,378
2018-05-16T13:02:29.724Z,379
2018-05-16T13:03:36.934Z,380
2018-05-16T13:04:44.143Z,378
2018-05-16T13:05:51.076Z,378
2018-05-16T13:06:58.344Z,376
2018-05-16T13:08:05.322Z,373
2018-05-16T13:09:12.533Z,373
2018-05-16T13:10:19.746Z,371
2018-05-16T13:11:26.954Z,372
2018-05-16T13:12:34.169Z,378
2018-05-16T13:13:41.105Z,382
2018-05-16T13:14:48.315Z,388
2018-05-16T13:15:55.526Z,389
2018-05-16T13:17:02.742Z,391
2018-05-16T13:18:10.253Z,389
2018-05-16T13:19:17.578Z,389
2018-05-16T13:20:24.790Z,390
2018-05-16T13:21:32.265Z,388
2018-05-16T13:22:39.603Z,387
2018-05-16T13:23:46.823Z,386
2018-05-16T13:24:53.488Z,386
2018-05-16T13:26:00.701Z,388
2018-05-16T13:27:07.916Z,392
2018-05-16T13:28:14.862Z,393
2018-05-16T13:29:22.057Z,394
2018-05-16T13:30:28.990Z,395
2018-05-16T13:31:35.934Z,397
2018-05-16T13:32:42.881Z,397
2018-05-16T13:33:50.084Z,399
2018-05-16T13:34:57.303Z,397
2018-05-16T13:36:04.523Z,397
2018-05-16T13:37:11.744Z,395
2018-05-16T13:38:18.962Z,395
2018-05-16T13:39:26.170Z,396
2018-05-16T13:40:33.382Z,396
2018-05-16T13:41:40.623Z,395
2018-05-16T13:42:47.572Z,394
2018-05-16T13:43:54.789Z,395
2018-05-16T13:45:01.999Z,394
2018-05-16T13:46:08.930Z,396
2018-05-16T13:47:15.878Z,397
2018-05-16T13:48:22.824Z,396
2018-05-16T13:49:30.022Z,395
2018-05-16T13:50:37.242Z,393
2018-05-16T13:51:44.458Z,392
2018-05-16T13:52:51.401Z,391
2018-05-16T13:53:58.339Z,389
2018-05-16T13:55:05.552Z,386
2018-05-16T13:56:12.488Z,384
2018-05-16T13:57:19.463Z,386
2018-05-16T13:58:26.675Z,386
2018-05-16T13:59:33.621Z,388
2018-05-16T14:00:40.828Z,390
2018-05-16T14:01:48.044Z,388
2018-05-16T14:02:55.255Z,385
2018-05-16T14:04:02.485Z,386
2018-05-16T14:05:09.691Z,385
2018-05-16T14:06:16.904Z,385
2018-05-16T14:07:24.118Z,382
2018-05-16T14:08:31.399Z,377
2018-05-16T14:09:38.610Z,378
2018-05-16T14:10:45.829Z,373
2018-05-16T14:11:53.040Z,365
2018-05-16T14:13:00.249Z,368
2018-05-16T14:14:07.459Z,371
2018-05-16T14:15:14.568Z,373
2018-05-16T14:16:21.802Z,380
2018-05-16T14:17:29.009Z,377
2018-05-16T14:18:36.216Z,372
2018-05-16T14:19:43.493Z,369
2018-05-16T14:20:50.432Z,360
2018-05-16T14:21:57.707Z,375
2018-05-16T14:23:04.918Z,376
2018-05-16T14:24:12.132Z,379
2018-05-16T14:25:19.339Z,367
2018-05-16T14:26:26.274Z,362
2018-05-16T14:27:33.479Z,358
2018-05-16T14:28:40.685Z,362
2018-05-16T14:29:47.894Z,356
2018-05-16T14:30:54.850Z,359
2018-05-16T14:32:02.061Z,360
2018-05-16T14:33:09.271Z,372
2018-05-16T14:34:16.487Z,377
2018-05-16T14:35:23.418Z,378
2018-05-16T14:36:30.357Z,378
2018-05-16T14:37:37.298Z,377
2018-05-16T14:38:44.508Z,376
2018-05-16T14:39:51.444Z,372
2018-05-16T14:40:58.655Z,373
2018-05-16T14:42:05.864Z,373
2018-05-16T14:43:13.085Z,376
2018-05-16T14:44:20.294Z,361
2018-05-16T14:45:27.508Z,356
2018-05-16T14:46:34.713Z,348
2018-05-16T14:47:41.941Z,354
2018-05-16T14:48:49.152Z,360
2018-05-16T14:49:56.357Z,364
2018-05-16T14:51:03.569Z,369
2018-05-16T14:52:10.505Z,375
2018-05-16T14:53:17.719Z,385
2018-05-16T14:54:24.933Z,388
2018-05-16T14:55:32.279Z,389
2018-05-16T14:56:39.492Z,390
2018-05-16T14:57:46.706Z,393
2018-05-16T14:58:53.641Z,394
2018-05-16T15:00:00.849Z,394
2018-05-16T15:01:08.059Z,392
2018-05-16T15:02:15.269Z,389
2018-05-16T15:03:22.478Z,390
2018-05-16T15:04:29.684Z,388
2018-05-16T15:05:36.898Z,389
2018-05-16T15:06:43.834Z,387
2018-05-16T15:07:50.766Z,385
2018-05-16T15:08:57.987Z,385
2018-05-16T15:10:05.197Z,384
2018-05-16T15:11:12.407Z,386
2018-05-16T15:12:19.624Z,384
2018-05-16T15:13:26.821Z,384
2018-05-16T15:14:33.761Z,386
2018-05-16T15:15:40.975Z,387
2018-05-16T15:16:48.190Z,383
2018-05-16T15:17:55.417Z,383
2018-05-16T15:19:02.619Z,381
2018-05-16T15:20:09.830Z,379
2018-05-16T15:21:17.106Z,381
2018-05-16T15:22:24.336Z,374
2018-05-16T15:23:31.762Z,370
2018-05-16T15:24:38.703Z,380
2018-05-16T15:25:45.641Z,384